Time;durP1;ratioP1;P1;durP2;ratioP2;P2;SDS_P1;SDS_P2;PMS_P1;PMS_P2;Temp;Humidity;BMP_temperature;BMP_pressure;BME280_temperature;BME280_humidity;BME280_pressure;Samples;Min_cycle;Max_cycle;Signal;HPM_P1;HPM_P2
2023/12/09 00:01:40;;;;;;;17.38;4.63;;;9.80;99.90;;;;;;4130360;28;20530;-65
2023/12/09 00:03:42;;;;;;;32.65;8.35;;;9.70;99.90;;;;;;4147195;28;20129;-65
2023/12/09 00:05:44;;;;;;;27.63;7.80;;;9.70;99.90;;;;;;4130355;28;20489;-65
2023/12/09 00:07:46;;;;;;;31.75;8.77;;;9.80;99.90;;;;;;4147299;28;20046;-65
2023/12/09 00:09:49;;;;;;;29.05;7.45;;;9.80;99.90;;;;;;4147842;28;20042;-65
2023/12/09 00:11:51;;;;;;;32.97;8.02;;;9.80;99.90;;;;;;4147555;28;20088;-65
2023/12/09 00:13:53;;;;;;;26.42;7.32;;;9.80;99.90;;;;;;4147702;28;20088;-66
2023/12/09 00:15:56;;;;;;;25.75;7.03;;;9.90;99.90;;;;;;4147630;28;20050;-65
2023/12/09 00:17:59;;;;;;;27.77;6.57;;;9.80;99.90;;;;;;4147411;28;20057;-64
2023/12/09 00:20:04;;;;;;;22.05;6.22;;;9.70;99.90;;;;;;4130383;28;20050;-65
2023/12/09 00:22:06;;;;;;;41.38;7.50;;;9.80;99.90;;;;;;4130342;28;20057;-64
2023/12/09 00:24:08;;;;;;;25.00;6.43;;;9.70;99.90;;;;;;4147764;28;20120;-63
2023/12/09 00:26:10;;;;;;;21.50;4.97;;;9.70;99.90;;;;;;4147904;28;20054;-64
2023/12/09 00:28:12;;;;;;;33.50;8.35;;;9.70;99.90;;;;;;4147388;28;20057;-64
2023/12/09 00:30:15;;;;;;;34.17;9.32;;;9.70;99.90;;;;;;4147386;28;20042;-63
2023/12/09 00:32:19;;;;;;;25.48;7.97;;;9.70;99.90;;;;;;4146924;28;20054;-64
2023/12/09 00:34:21;;;;;;;30.23;6.70;;;9.70;99.90;;;;;;4147478;28;20101;-64
2023/12/09 00:36:23;;;;;;;31.40;8.60;;;9.70;99.90;;;;;;4147559;28;20054;-64
2023/12/09 00:38:26;;;;;;;28.25;7.28;;;9.60;99.90;;;;;;4147495;28;20100;-64
2023/12/09 00:40:28;;;;;;;32.00;6.65;;;9.60;99.90;;;;;;4147540;28;20056;-64
2023/12/09 00:42:30;;;;;;;26.30;6.65;;;9.60;99.90;;;;;;4147534;28;20049;-64
2023/12/09 00:44:32;;;;;;;28.95;6.50;;;9.60;99.90;;;;;;4129918;28;20054;-64
2023/12/09 00:46:34;;;;;;;26.90;6.68;;;9.50;99.90;;;;;;4147186;28;20049;-64
2023/12/09 00:48:37;;;;;;;23.38;6.72;;;9.50;99.90;;;;;;4147420;28;20121;-66
2023/12/09 00:50:39;;;;;;;34.30;6.95;;;9.60;99.90;;;;;;4147722;28;20054;-64
2023/12/09 00:52:41;;;;;;;26.55;6.05;;;9.50;99.90;;;;;;4147644;28;20142;-64
2023/12/09 00:54:43;;;;;;;19.73;5.75;;;9.50;99.90;;;;;;4147634;28;20513;-64
2023/12/09 00:56:45;;;;;;;30.55;7.72;;;9.60;99.90;;;;;;4147578;28;20045;-65
2023/12/09 00:58:47;;;;;;;26.20;6.70;;;9.60;99.90;;;;;;4147742;28;20046;-66
2023/12/09 01:00:49;;;;;;;30.92;8.98;;;9.60;99.90;;;;;;4147090;28;20045;-65
2023/12/09 01:02:51;;;;;;;32.08;6.88;;;9.60;99.90;;;;;;4147379;28;20501;-64
2023/12/09 01:04:55;;;;;;;30.02;8.02;;;9.70;99.90;;;;;;4147854;28;20477;-65
2023/12/09 01:06:57;;;;;;;23.30;6.40;;;9.70;99.90;;;;;;4147449;28;20054;-64
2023/12/09 01:08:59;;;;;;;24.08;6.90;;;9.70;99.90;;;;;;4147379;28;20046;-66
2023/12/09 01:11:02;;;;;;;31.63;6.68;;;9.70;99.90;;;;;;4148080;28;20064;-65
2023/12/09 01:13:04;;;;;;;22.55;6.05;;;9.60;99.90;;;;;;4147615;28;20088;-65
2023/12/09 01:15:07;;;;;;;32.28;7.60;;;9.60;99.90;;;;;;4147232;28;20077;-65
2023/12/09 01:17:09;;;;;;;29.55;6.38;;;9.60;99.90;;;;;;4147295;28;20050;-65
2023/12/09 01:19:11;;;;;;;27.77;7.30;;;9.50;99.90;;;;;;4148933;28;20049;-65
2023/12/09 01:21:15;;;;;;;21.95;5.70;;;9.60;99.90;;;;;;4150661;28;20070;-65
2023/12/09 01:23:17;;;;;;;25.73;7.07;;;9.60;99.90;;;;;;4150650;28;20050;-64
2023/12/09 01:25:19;;;;;;;27.05;6.72;;;9.40;99.90;;;;;;4150410;28;20049;-66
2023/12/09 01:27:21;;;;;;;25.27;5.78;;;9.40;99.90;;;;;;4150414;28;20045;-65
2023/12/09 01:29:23;;;;;;;27.95;6.60;;;9.40;99.90;;;;;;4133241;28;20061;-66
2023/12/09 01:31:25;;;;;;;28.17;6.63;;;9.40;99.90;;;;;;4152790;28;20497;-67
2023/12/09 01:33:27;;;;;;;27.00;6.10;;;9.50;99.90;;;;;;4152592;28;20065;-66
2023/12/09 01:35:30;;;;;;;23.58;5.55;;;9.40;99.90;;;;;;4153929;28;20404;-67
2023/12/09 01:37:33;;;;;;;30.25;6.57;;;9.50;99.90;;;;;;4153648;28;20060;-65
2023/12/09 01:39:37;;;;;;;29.45;6.63;;;9.40;99.90;;;;;;4153619;28;20042;-66
2023/12/09 01:41:39;;;;;;;27.25;6.18;;;9.40;99.90;;;;;;4151401;28;20478;-64
2023/12/09 01:43:46;;;;;;;22.95;5.63;;;9.30;99.90;;;;;;4133875;28;20046;-71
2023/12/09 01:45:51;;;;;;;25.13;6.20;;;9.30;99.90;;;;;;4150584;28;20481;-64
2023/12/09 01:47:53;;;;;;;29.33;6.25;;;9.30;99.90;;;;;;4151064;28;20056;-65
2023/12/09 01:49:55;;;;;;;28.02;6.65;;;9.20;99.90;;;;;;4151782;28;20056;-66
2023/12/09 01:51:59;;;;;;;26.70;5.70;;;9.30;99.90;;;;;;4151943;28;20050;-64
2023/12/09 01:54:02;;;;;;;23.75;6.07;;;9.30;99.90;;;;;;4150728;28;20042;-65
2023/12/09 01:56:09;;;;;;;20.00;5.13;;;9.20;99.90;;;;;;4150175;28;20077;-64
2023/12/09 01:58:11;;;;;;;29.80;6.35;;;9.30;99.90;;;;;;4150042;28;20129;-64
2023/12/09 02:00:14;;;;;;;32.40;6.90;;;9.30;99.90;;;;;;4149177;28;20056;-64
2023/12/09 02:02:16;;;;;;;25.63;5.85;;;9.20;99.90;;;;;;4149673;28;20049;-65
2023/12/09 02:04:19;;;;;;;29.20;6.70;;;9.20;99.90;;;;;;4149339;28;20042;-64
2023/12/09 02:06:21;;;;;;;26.88;6.10;;;9.20;99.90;;;;;;4150108;28;20192;-64
2023/12/09 02:08:23;;;;;;;30.98;6.28;;;9.20;99.90;;;;;;4149700;28;20045;-64
2023/12/09 02:10:27;;;;;;;20.45;4.93;;;9.20;99.90;;;;;;4149625;28;20046;-64
2023/12/09 02:12:35;;;;;;;25.27;6.63;;;9.20;99.90;;;;;;4149494;28;20608;-64
2023/12/09 02:14:45;;;;;;;24.15;6.15;;;9.20;99.90;;;;;;4148960;28;20420;-64
2023/12/09 02:16:53;;;;;;;25.02;5.88;;;9.30;99.90;;;;;;4149544;28;20066;-64
2023/12/09 02:18:56;;;;;;;23.42;5.55;;;9.30;99.90;;;;;;4149464;28;20119;-65
2023/12/09 02:20:59;;;;;;;30.00;6.53;;;9.30;99.90;;;;;;4149459;28;20096;-65
2023/12/09 02:23:06;;;;;;;26.05;6.43;;;9.40;99.90;;;;;;4149771;28;20049;-64
2023/12/09 02:25:09;;;;;;;33.35;7.30;;;9.40;99.90;;;;;;4149351;28;20603;-65
2023/12/09 02:27:13;;;;;;;28.00;6.95;;;9.30;99.90;;;;;;4149211;28;20129;-65
2023/12/09 02:29:17;;;;;;;24.38;7.13;;;9.30;99.90;;;;;;4148949;28;20497;-65
2023/12/09 02:31:23;;;;;;;24.83;4.85;;;9.30;99.90;;;;;;4149213;28;20124;-64
2023/12/09 02:33:26;;;;;;;29.30;6.18;;;9.30;99.90;;;;;;4149641;28;20068;-64
2023/12/09 02:35:31;;;;;;;26.60;6.30;;;9.30;99.90;;;;;;4149506;28;20378;-64
2023/12/09 02:37:34;;;;;;;25.20;5.65;;;9.30;99.90;;;;;;4149139;28;20134;-65
2023/12/09 02:39:39;;;;;;;28.17;7.40;;;9.30;99.90;;;;;;4149076;28;20446;-65
2023/12/09 02:41:42;;;;;;;29.27;6.63;;;9.30;99.90;;;;;;4149066;28;20050;-65
2023/12/09 02:43:45;;;;;;;35.92;8.13;;;9.20;99.90;;;;;;4148880;28;20054;-64
2023/12/09 02:45:47;;;;;;;29.52;7.20;;;9.30;99.90;;;;;;4131732;28;20046;-64
2023/12/09 02:47:49;;;;;;;27.13;7.15;;;9.30;99.90;;;;;;4148869;28;20074;-64
2023/12/09 02:49:51;;;;;;;27.80;7.63;;;9.20;99.90;;;;;;4148916;28;20417;-65
2023/12/09 02:51:53;;;;;;;29.90;7.47;;;9.20;99.90;;;;;;4148732;28;20497;-65
2023/12/09 02:53:55;;;;;;;27.13;7.15;;;9.30;99.90;;;;;;4148911;28;20052;-64
2023/12/09 02:55:58;;;;;;;24.95;6.90;;;9.30;99.90;;;;;;4131393;28;20129;-67
2023/12/09 02:58:00;;;;;;;23.00;6.32;;;9.40;99.90;;;;;;4148370;28;20489;-65
2023/12/09 03:00:05;;;;;;;29.17;6.97;;;9.20;99.90;;;;;;4148497;28;20057;-64
2023/12/09 03:02:07;;;;;;;30.40;7.80;;;9.20;99.90;;;;;;4148700;28;20052;-64
2023/12/09 03:04:10;;;;;;;22.83;7.05;;;9.20;99.90;;;;;;4148700;28;20433;-65
2023/12/09 03:06:12;;;;;;;26.05;6.20;;;9.30;99.90;;;;;;4148742;28;20050;-64
2023/12/09 03:08:14;;;;;;;22.83;6.15;;;9.30;99.90;;;;;;4148781;28;20048;-64
2023/12/09 03:10:16;;;;;;;25.17;7.15;;;9.30;99.90;;;;;;4148609;28;20046;-64
2023/12/09 03:12:20;;;;;;;25.17;6.35;;;9.30;99.90;;;;;;4148200;28;20513;-65
2023/12/09 03:14:23;;;;;;;28.83;6.50;;;9.30;99.90;;;;;;4148468;28;20050;-64
2023/12/09 03:16:25;;;;;;;24.70;6.57;;;9.40;99.90;;;;;;4148558;28;20516;-65
2023/12/09 03:18:27;;;;;;;27.00;6.60;;;9.30;99.90;;;;;;4148565;28;20068;-65
2023/12/09 03:20:29;;;;;;;28.40;6.90;;;9.40;99.90;;;;;;4130921;28;20046;-64
2023/12/09 03:22:31;;;;;;;34.00;7.15;;;9.50;99.90;;;;;;4148277;28;20081;-64
2023/12/09 03:24:33;;;;;;;22.80;6.47;;;9.40;99.90;;;;;;4148316;28;20117;-64
2023/12/09 03:26:35;;;;;;;23.90;6.85;;;9.40;99.90;;;;;;4148140;28;20057;-64
2023/12/09 03:28:40;;;;;;;31.02;7.22;;;9.40;99.90;;;;;;4148244;28;20129;-64
2023/12/09 03:30:42;;;;;;;26.10;6.00;;;9.40;99.90;;;;;;4148293;28;20070;-65
2023/12/09 03:32:44;;;;;;;28.30;7.07;;;9.40;99.90;;;;;;4148459;28;20046;-64
2023/12/09 03:34:46;;;;;;;26.35;5.95;;;9.40;99.90;;;;;;4148379;28;20137;-64
2023/12/09 03:36:48;;;;;;;34.40;8.35;;;9.40;99.90;;;;;;4148262;28;20050;-64
2023/12/09 03:38:50;;;;;;;31.00;6.65;;;9.40;99.90;;;;;;4148293;28;20072;-65
2023/12/09 03:40:53;;;;;;;34.13;7.15;;;9.40;99.90;;;;;;4147414;28;20045;-64
2023/12/09 03:42:55;;;;;;;23.17;6.68;;;9.30;99.90;;;;;;4147795;28;20537;-64
2023/12/09 03:44:58;;;;;;;30.45;7.03;;;9.30;99.90;;;;;;4147929;28;20100;-64
2023/12/09 03:47:00;;;;;;;28.38;7.18;;;9.40;99.90;;;;;;4148073;28;20121;-64
2023/12/09 03:49:10;;;;;;;26.08;6.85;;;9.40;99.90;;;;;;4147886;28;20060;-65
2023/12/09 03:51:12;;;;;;;26.42;6.65;;;9.30;99.90;;;;;;4147833;28;20130;-65
2023/12/09 03:53:14;;;;;;;28.08;6.57;;;9.30;99.90;;;;;;4147842;28;20539;-65
2023/12/09 03:55:16;;;;;;;33.50;7.00;;;9.30;99.90;;;;;;4147552;28;20551;-64
2023/12/09 03:57:18;;;;;;;33.97;7.47;;;9.30;99.90;;;;;;4147972;28;20099;-64
2023/12/09 03:59:20;;;;;;;24.48;6.65;;;9.30;99.90;;;;;;4147760;28;20057;-64
2023/12/09 04:01:24;;;;;;;34.80;7.72;;;9.40;99.90;;;;;;4147975;28;20057;-64
2023/12/09 04:03:27;;;;;;;27.95;6.90;;;9.40;99.90;;;;;;4147273;28;20046;-64
2023/12/09 04:05:29;;;;;;;25.05;5.97;;;9.40;99.90;;;;;;4148034;28;20432;-64
2023/12/09 04:07:32;;;;;;;30.95;6.93;;;9.40;99.90;;;;;;4147628;28;20065;-64
2023/12/09 04:09:34;;;;;;;30.65;6.20;;;9.50;99.90;;;;;;4147390;28;20049;-64
2023/12/09 04:11:36;;;;;;;24.17;5.78;;;9.40;99.90;;;;;;4147558;28;20046;-64
2023/12/09 04:13:40;;;;;;;33.78;6.78;;;9.40;99.90;;;;;;4147664;28;20073;-64
2023/12/09 04:15:42;;;;;;;21.77;5.47;;;9.50;99.90;;;;;;4147773;28;20481;-64
2023/12/09 04:17:46;;;;;;;27.42;6.50;;;9.40;99.90;;;;;;4147606;28;20455;-64
2023/12/09 04:19:48;;;;;;;33.80;6.63;;;9.40;99.90;;;;;;4147792;28;20078;-63
2023/12/09 04:21:51;;;;;;;28.35;7.57;;;9.40;99.90;;;;;;4147655;28;20056;-63
2023/12/09 04:23:53;;;;;;;27.30;6.10;;;9.30;99.90;;;;;;4147174;28;20052;-64
2023/12/09 04:25:55;;;;;;;33.35;6.60;;;9.30;99.90;;;;;;4147488;28;20513;-64
2023/12/09 04:27:58;;;;;;;25.33;6.03;;;9.30;99.90;;;;;;4147612;28;20046;-64
2023/12/09 04:30:00;;;;;;;24.80;6.10;;;9.40;99.90;;;;;;4147649;28;20041;-64
2023/12/09 04:32:02;;;;;;;24.55;6.05;;;9.40;99.90;;;;;;4147616;28;20577;-64
2023/12/09 04:34:06;;;;;;;30.45;5.97;;;9.50;99.90;;;;;;4147280;28;20176;-64
2023/12/09 04:36:09;;;;;;;27.63;5.80;;;9.60;99.90;;;;;;4147651;28;20404;-64
2023/12/09 04:38:11;;;;;;;27.88;6.15;;;9.60;99.90;;;;;;4129638;28;20046;-63
2023/12/09 04:40:13;;;;;;;26.90;6.03;;;9.60;99.90;;;;;;4147350;28;20080;-64
2023/12/09 04:42:19;;;;;;;35.00;6.32;;;9.60;99.90;;;;;;4147431;28;20157;-65
2023/12/09 04:44:23;;;;;;;24.73;6.00;;;9.60;99.90;;;;;;4147423;28;20054;-65
2023/12/09 04:46:25;;;;;;;28.75;5.25;;;9.50;99.90;;;;;;4147629;28;20092;-64
2023/12/09 04:48:27;;;;;;;25.35;5.55;;;9.50;99.90;;;;;;4147597;28;20042;-65
2023/12/09 04:50:31;;;;;;;27.13;6.88;;;9.50;99.90;;;;;;4149508;28;20108;-66
2023/12/09 04:52:33;;;;;;;25.98;5.55;;;9.50;99.90;;;;;;4151021;28;20077;-65
2023/12/09 04:54:35;;;;;;;28.83;5.40;;;9.60;99.90;;;;;;4152534;28;20501;-65
2023/12/09 04:56:37;;;;;;;21.20;4.97;;;9.60;99.90;;;;;;4133809;28;20129;-64
2023/12/09 04:58:39;;;;;;;29.88;5.93;;;9.60;99.90;;;;;;4150679;28;20042;-65
2023/12/09 05:00:41;;;;;;;26.17;5.72;;;9.60;99.90;;;;;;4150834;28;20081;-66
2023/12/09 05:02:44;;;;;;;28.90;6.28;;;9.60;99.90;;;;;;4150854;28;20046;-65
2023/12/09 05:04:46;;;;;;;20.02;4.90;;;9.50;99.90;;;;;;4150465;28;20124;-65
2023/12/09 05:06:50;;;;;;;21.25;5.07;;;9.60;99.90;;;;;;4150488;28;20132;-65
2023/12/09 05:08:52;;;;;;;32.65;5.63;;;9.60;99.90;;;;;;4150695;28;20073;-64
2023/12/09 05:10:56;;;;;;;21.85;5.13;;;9.50;99.90;;;;;;4150555;28;20050;-64
2023/12/09 05:12:58;;;;;;;23.45;5.93;;;9.60;99.90;;;;;;4150602;28;20050;-64
2023/12/09 05:15:00;;;;;;;32.33;6.25;;;9.60;99.90;;;;;;4150583;28;20042;-64
2023/12/09 05:17:03;;;;;;;25.00;5.00;;;9.70;99.90;;;;;;4150861;28;20041;-64
2023/12/09 05:19:05;;;;;;;24.10;5.38;;;9.70;99.90;;;;;;4151793;28;20056;-64
2023/12/09 05:21:08;;;;;;;23.15;4.97;;;9.80;99.90;;;;;;4151668;28;20068;-65
2023/12/09 05:23:11;;;;;;;25.00;5.35;;;9.70;99.90;;;;;;4151371;28;20055;-65
2023/12/09 05:25:14;;;;;;;22.90;5.07;;;9.70;99.90;;;;;;4150256;28;20092;-64
2023/12/09 05:27:16;;;;;;;23.27;5.03;;;9.70;99.90;;;;;;4150660;28;20206;-65
2023/12/09 05:29:18;;;;;;;23.70;5.05;;;9.70;99.90;;;;;;4150222;28;20404;-65
2023/12/09 05:31:21;;;;;;;26.67;5.50;;;9.70;99.90;;;;;;4132645;28;20047;-64
2023/12/09 05:33:23;;;;;;;17.00;4.65;;;9.60;99.90;;;;;;4149986;28;20489;-64
2023/12/09 05:35:25;;;;;;;31.23;5.22;;;9.50;99.90;;;;;;4150220;28;20053;-65
2023/12/09 05:37:27;;;;;;;21.05;5.07;;;9.60;99.90;;;;;;4149606;28;20045;-64
2023/12/09 05:39:30;;;;;;;22.80;5.32;;;9.50;99.90;;;;;;4150193;28;20157;-65
2023/12/09 05:41:32;;;;;;;20.33;5.10;;;9.50;99.90;;;;;;4149735;28;20125;-65
2023/12/09 05:43:35;;;;;;;26.08;5.22;;;9.50;99.90;;;;;;4150133;28;20508;-64
2023/12/09 05:45:37;;;;;;;19.17;4.57;;;9.60;99.90;;;;;;4149969;28;20057;-65
2023/12/09 05:47:39;;;;;;;19.73;4.28;;;9.60;99.90;;;;;;4149911;28;20042;-64
2023/12/09 05:49:42;;;;;;;21.00;4.32;;;9.70;99.90;;;;;;4149883;28;20052;-64
2023/12/09 05:51:44;;;;;;;18.27;4.07;;;9.60;99.90;;;;;;4149417;28;20046;-65
2023/12/09 05:53:46;;;;;;;24.58;5.18;;;9.60;99.90;;;;;;4149790;28;20452;-65
2023/12/09 05:55:50;;;;;;;20.50;5.18;;;9.50;99.90;;;;;;4149956;28;20072;-64
2023/12/09 05:57:52;;;;;;;22.73;5.25;;;9.60;99.90;;;;;;4149973;28;20443;-64
2023/12/09 05:59:54;;;;;;;15.45;3.85;;;9.50;99.90;;;;;;4149697;28;20057;-64
2023/12/09 06:01:56;;;;;;;19.45;4.72;;;9.60;99.90;;;;;;4149737;28;20201;-64
2023/12/09 06:03:58;;;;;;;22.10;4.93;;;9.60;99.90;;;;;;4149162;28;20556;-65
2023/12/09 06:06:00;;;;;;;15.63;4.60;;;9.60;99.90;;;;;;4148817;28;20046;-65
2023/12/09 06:08:03;;;;;;;19.42;4.57;;;9.60;99.90;;;;;;4149386;28;20413;-65
2023/12/09 06:10:05;;;;;;;21.23;4.75;;;9.60;99.90;;;;;;4149691;28;20077;-64
2023/12/09 06:12:09;;;;;;;17.88;4.75;;;9.70;99.90;;;;;;4149456;28;20513;-64
2023/12/09 06:14:11;;;;;;;19.02;4.05;;;9.70;99.90;;;;;;4149376;28;20088;-65
2023/12/09 06:16:17;;;;;;;14.35;3.78;;;9.60;99.90;;;;;;4149721;28;20046;-64
2023/12/09 06:18:19;;;;;;;20.90;4.75;;;9.70;99.90;;;;;;4132036;28;20047;-65
2023/12/09 06:20:21;;;;;;;14.85;4.22;;;9.70;99.90;;;;;;4149155;28;20565;-64
2023/12/09 06:22:23;;;;;;;21.33;4.68;;;9.70;99.90;;;;;;4149403;28;20070;-65
2023/12/09 06:24:26;;;;;;;18.88;4.03;;;9.60;99.90;;;;;;4149457;28;20049;-64
2023/12/09 06:26:28;;;;;;;15.57;3.90;;;9.70;99.90;;;;;;4149328;28;20042;-64
2023/12/09 06:28:31;;;;;;;17.33;4.10;;;9.70;99.90;;;;;;4149523;28;20464;-65
2023/12/09 06:30:33;;;;;;;18.13;3.55;;;9.80;99.90;;;;;;4149553;28;20081;-64
2023/12/09 06:32:35;;;;;;;16.27;3.83;;;9.70;99.90;;;;;;4149242;28;20540;-64
2023/12/09 06:34:38;;;;;;;19.40;4.15;;;9.80;99.90;;;;;;4131325;28;20042;-64
2023/12/09 06:36:40;;;;;;;21.27;4.75;;;9.80;99.90;;;;;;4149120;28;20493;-65
2023/12/09 06:38:42;;;;;;;15.45;3.67;;;9.70;99.90;;;;;;4149819;28;20046;-64
2023/12/09 06:40:44;;;;;;;17.63;4.60;;;9.70;99.90;;;;;;4149217;28;20050;-65
2023/12/09 06:42:46;;;;;;;20.08;3.72;;;9.70;99.90;;;;;;4148956;28;20056;-65
2023/12/09 06:44:49;;;;;;;19.00;4.05;;;9.70;99.90;;;;;;4149029;28;20049;-64
2023/12/09 06:46:52;;;;;;;13.68;4.20;;;9.60;99.90;;;;;;4149017;28;20050;-65
2023/12/09 06:48:54;;;;;;;13.48;3.67;;;9.60;99.90;;;;;;4148662;28;20050;-64
2023/12/09 06:50:56;;;;;;;10.80;3.25;;;9.60;99.90;;;;;;4149023;28;20417;-65
2023/12/09 06:53:00;;;;;;;17.30;4.40;;;9.60;99.90;;;;;;4149124;28;20046;-65
2023/12/09 06:55:03;;;;;;;16.40;3.97;;;9.60;99.90;;;;;;4148872;28;20054;-64
2023/12/09 06:57:05;;;;;;;13.68;3.53;;;9.70;99.90;;;;;;4148870;28;20057;-65
2023/12/09 06:59:07;;;;;;;11.52;3.33;;;9.70;99.90;;;;;;4148749;28;20448;-65
2023/12/09 07:01:18;;;;;;;16.05;3.38;;;9.70;99.90;;;;;;4149013;28;20049;-65
2023/12/09 07:03:20;;;;;;;11.27;3.38;;;9.60;99.90;;;;;;4148423;28;20124;-65
2023/12/09 07:05:22;;;;;;;15.18;3.08;;;9.60;99.90;;;;;;4148819;28;20050;-64
2023/12/09 07:07:25;;;;;;;13.80;3.05;;;9.60;99.90;;;;;;4148938;28;20046;-65
2023/12/09 07:09:28;;;;;;;18.00;3.83;;;9.60;99.90;;;;;;4149069;28;20056;-64
2023/12/09 07:11:32;;;;;;;9.60;2.78;;;9.60;99.90;;;;;;4149252;28;20485;-65
2023/12/09 07:13:34;;;;;;;15.20;3.20;;;9.70;99.90;;;;;;4150746;28;20050;-65
2023/12/09 07:15:36;;;;;;;12.90;3.00;;;9.70;99.90;;;;;;4150250;28;20046;-65
2023/12/09 07:17:40;;;;;;;12.20;2.97;;;9.70;99.90;;;;;;4150426;28;20493;-66
2023/12/09 07:19:42;;;;;;;12.65;3.33;;;9.80;99.90;;;;;;4149711;28;20045;-63
2023/12/09 07:21:44;;;;;;;23.45;3.25;;;9.70;99.90;;;;;;4148975;28;20052;-65
2023/12/09 07:23:47;;;;;;;12.57;3.00;;;9.80;99.90;;;;;;4148630;28;20544;-64
2023/12/09 07:25:49;;;;;;;8.82;2.33;;;9.80;99.90;;;;;;4148464;28;20065;-64
2023/12/09 07:27:51;;;;;;;12.65;3.53;;;9.80;99.90;;;;;;4148301;28;20549;-65
2023/12/09 07:29:53;;;;;;;18.95;3.65;;;9.80;99.90;;;;;;4148397;28;20046;-64
2023/12/09 07:31:55;;;;;;;16.48;3.55;;;9.80;99.90;;;;;;4147852;28;20103;-65
2023/12/09 07:33:58;;;;;;;13.93;3.65;;;9.80;99.90;;;;;;4148409;28;20061;-65
2023/12/09 07:36:01;;;;;;;12.25;3.63;;;9.80;99.90;;;;;;4148696;28;20469;-64
2023/12/09 07:38:03;;;;;;;10.13;3.30;;;9.90;99.90;;;;;;4148248;28;20405;-65
2023/12/09 07:40:10;;;;;;;10.27;3.25;;;9.80;99.90;;;;;;4148110;28;20434;-65
2023/12/09 07:42:12;;;;;;;11.80;3.08;;;9.80;99.90;;;;;;4148344;28;20112;-65
2023/12/09 07:44:15;;;;;;;11.63;3.00;;;9.90;99.90;;;;;;4148270;28;20056;-65
2023/12/09 07:46:17;;;;;;;12.77;3.13;;;9.90;99.90;;;;;;4147856;28;20042;-64
2023/12/09 07:48:19;;;;;;;11.07;3.80;;;9.90;99.90;;;;;;4148111;28;20169;-65
2023/12/09 07:50:23;;;;;;;11.85;3.40;;;9.80;99.90;;;;;;4148169;28;20050;-65
2023/12/09 07:52:25;;;;;;;10.85;3.10;;;9.80;99.90;;;;;;4148252;28;20073;-65
2023/12/09 07:54:27;;;;;;;10.32;2.88;;;9.90;99.90;;;;;;4147872;28;20515;-65
2023/12/09 07:56:29;;;;;;;12.25;3.20;;;9.90;99.90;;;;;;4148127;28;20069;-64
2023/12/09 07:58:31;;;;;;;14.15;3.28;;;9.90;99.90;;;;;;4148095;28;20129;-65
2023/12/09 08:00:35;;;;;;;17.35;3.70;;;9.90;99.90;;;;;;4148338;28;20057;-65
2023/12/09 08:02:37;;;;;;;13.90;3.97;;;9.90;99.90;;;;;;4148127;28;20046;-63
2023/12/09 08:04:39;;;;;;;12.60;3.15;;;9.90;99.90;;;;;;4148322;28;20107;-65
2023/12/09 08:06:42;;;;;;;12.15;3.40;;;9.90;99.90;;;;;;4148320;28;20519;-62
2023/12/09 08:08:45;;;;;;;11.02;3.17;;;9.90;99.90;;;;;;4147792;28;20099;-64
2023/12/09 08:10:47;;;;;;;14.95;3.42;;;9.90;99.90;;;;;;4148046;28;20429;-65
2023/12/09 08:12:48;;;;;;;11.57;2.95;;;10.00;99.90;;;;;;4148286;28;20479;-65
2023/12/09 08:14:50;;;;;;;8.35;3.00;;;9.90;99.90;;;;;;4148427;28;20046;-67
2023/12/09 08:16:53;;;;;;;12.43;3.30;;;10.00;99.90;;;;;;4147680;28;20050;-64
2023/12/09 08:18:55;;;;;;;11.82;3.20;;;10.00;99.90;;;;;;4148162;28;20050;-63
2023/12/09 08:20:58;;;;;;;9.45;2.97;;;10.00;99.90;;;;;;4148103;28;20563;-63
2023/12/09 08:23:03;;;;;;;8.85;2.83;;;9.90;99.90;;;;;;4148010;28;20401;-66
2023/12/09 08:25:07;;;;;;;7.57;2.65;;;9.90;99.90;;;;;;4147655;28;20056;-65
2023/12/09 08:27:09;;;;;;;8.93;2.92;;;9.90;99.90;;;;;;4147574;28;20446;-65
2023/12/09 08:29:14;;;;;;;9.80;2.83;;;9.90;99.90;;;;;;4148222;28;20564;-65
2023/12/09 08:31:16;;;;;;;;;;;9.90;99.90;;;;;;4148444;28;20461;-65
2023/12/09 08:33:18;;;;;;;10.30;2.72;;;9.90;99.90;;;;;;4147880;28;20331;-64
2023/12/09 08:35:21;;;;;;;8.52;2.50;;;9.80;99.90;;;;;;4149398;28;20564;-65
2023/12/09 08:37:27;;;;;;;8.75;2.30;;;9.80;99.90;;;;;;4150315;28;20045;-70
2023/12/09 08:39:30;;;;;;;11.63;2.97;;;9.90;99.90;;;;;;4150169;28;20089;-66
2023/12/09 08:41:32;;;;;;;12.35;3.30;;;9.90;99.90;;;;;;4132944;28;20594;-67
2023/12/09 08:43:34;;;;;;;6.63;2.60;;;9.90;99.90;;;;;;4132707;28;20051;-64
2023/12/09 08:45:37;;;;;;;9.18;2.60;;;9.90;99.90;;;;;;4148610;28;20062;-65
2023/12/09 08:47:39;;;;;;;9.55;2.72;;;9.90;99.90;;;;;;4147937;28;20053;-64
2023/12/09 08:49:46;;;;;;;12.80;3.42;;;9.90;99.90;;;;;;4147911;28;20472;-64
2023/12/09 08:51:48;;;;;;;11.25;2.92;;;9.90;99.90;;;;;;4147542;28;20042;-64
2023/12/09 08:53:50;;;;;;;8.25;2.70;;;9.90;99.90;;;;;;4147746;28;20201;-63
2023/12/09 08:55:54;;;;;;;7.95;2.72;;;9.90;99.90;;;;;;4147258;28;20141;-62
2023/12/09 08:57:56;;;;;;;7.38;2.40;;;9.90;99.90;;;;;;4143628;28;20043;-63
2023/12/09 08:59:58;;;;;;;8.68;2.92;;;10.00;99.90;;;;;;4131644;28;20050;-63
2023/12/09 09:02:00;;;;;;;10.60;2.78;;;10.00;99.90;;;;;;4127785;28;20090;-65
2023/12/09 09:04:02;;;;;;;7.93;2.65;;;10.10;99.90;;;;;;4146630;28;20053;-64
2023/12/09 09:06:05;;;;;;;5.40;2.40;;;10.30;99.90;;;;;;4146628;28;20053;-65
2023/12/09 09:08:07;;;;;;;7.10;2.45;;;10.20;99.90;;;;;;4148434;28;20109;-65
2023/12/09 09:10:10;;;;;;;6.70;2.10;;;10.40;99.90;;;;;;4147537;28;20436;-65
2023/12/09 09:12:13;;;;;;;6.05;2.33;;;10.40;99.90;;;;;;4147768;28;20468;-65
2023/12/09 09:14:15;;;;;;;5.43;2.05;;;10.70;99.90;;;;;;4144285;28;20084;-65
2023/12/09 09:16:17;;;;;;;7.05;2.60;;;10.60;99.90;;;;;;4144420;28;20042;-65
2023/12/09 09:18:21;;;;;;;5.72;2.10;;;10.50;99.90;;;;;;4144530;28;20125;-64
2023/12/09 09:20:23;;;;;;;8.45;2.35;;;10.60;99.90;;;;;;4140536;28;20046;-65
2023/12/09 09:22:25;;;;;;;9.00;1.92;;;10.50;99.90;;;;;;4147296;28;20050;-65
2023/12/09 09:24:28;;;;;;;4.28;1.58;;;10.60;99.90;;;;;;4129289;28;20054;-65
2023/12/09 09:26:30;;;;;;;5.38;2.42;;;10.50;99.90;;;;;;4144732;28;20108;-65
2023/12/09 09:28:33;;;;;;;10.40;2.90;;;10.50;99.90;;;;;;4140157;28;20062;-64
2023/12/09 09:30:35;;;;;;;5.18;1.92;;;10.50;99.90;;;;;;4143694;28;20482;-67
2023/12/09 09:32:38;;;;;;;4.82;1.52;;;10.60;99.90;;;;;;4144938;28;20125;-65
2023/12/09 09:34:41;;;;;;;8.48;1.75;;;10.50;99.90;;;;;;4133006;28;20500;-64
2023/12/09 09:36:45;;;;;;;6.00;1.70;;;10.60;99.90;;;;;;4139830;28;20057;-64
2023/12/09 09:38:47;;;;;;;5.37;1.70;;;10.60;99.90;;;;;;4143547;28;20422;-65
2023/12/09 09:40:50;;;;;;;3.95;1.30;;;10.60;99.90;;;;;;4145219;28;20133;-64
2023/12/09 09:42:56;;;;;;;3.33;1.60;;;10.70;99.90;;;;;;4145864;28;20124;-64
2023/12/09 09:45:14;;;;;;;6.10;1.50;;;10.60;99.90;;;;;;4140054;28;20410;-63
2023/12/09 09:47:18;;;;;;;2.67;1.05;;;10.80;99.90;;;;;;4148274;28;20045;-63
2023/12/09 09:49:22;;;;;;;3.40;1.33;;;10.60;99.90;;;;;;4150138;28;20121;-64
2023/12/09 09:51:29;;;;;;;3.78;1.25;;;10.80;99.90;;;;;;4149905;28;20060;-64
2023/12/09 09:53:35;;;;;;;3.75;1.42;;;10.80;99.90;;;;;;4149482;28;20046;-65
2023/12/09 09:55:40;;;;;;;6.97;1.58;;;11.00;99.90;;;;;;4149683;28;20485;-65
2023/12/09 09:57:43;;;;;;;2.97;1.02;;;11.00;99.90;;;;;;4145708;28;20398;-63
2023/12/09 09:59:45;;;;;;;3.83;1.10;;;10.90;99.90;;;;;;4130350;28;20051;-64
2023/12/09 10:01:49;;;;;;;4.43;1.50;;;10.90;99.90;;;;;;4145340;28;20053;-64
2023/12/09 10:03:51;;;;;;;2.37;1.23;;;11.00;99.90;;;;;;4149442;28;20050;-63
2023/12/09 10:05:54;;;;;;;2.40;1.20;;;11.00;99.90;;;;;;4148298;28;20468;-64
2023/12/09 10:07:57;;;;;;;1.38;0.85;;;11.00;99.90;;;;;;4141602;28;20049;-64
2023/12/09 10:09:59;;;;;;;3.97;1.20;;;11.00;99.90;;;;;;4144929;28;20491;-64
2023/12/09 10:12:01;;;;;;;4.47;1.10;;;11.10;99.90;;;;;;4143528;28;20511;-63
2023/12/09 10:14:04;;;;;;;3.38;0.93;;;11.00;99.90;;;;;;4149010;28;20096;-63
2023/12/09 10:16:06;;;;;;;5.78;1.05;;;10.90;99.90;;;;;;4146156;28;20042;-63
2023/12/09 10:18:13;;;;;;;3.17;1.10;;;10.90;99.90;;;;;;4144831;28;20046;-64
2023/12/09 10:20:16;;;;;;;7.93;1.55;;;11.00;99.90;;;;;;4133397;28;20118;-63
2023/12/09 10:22:18;;;;;;;3.03;1.52;;;11.10;99.90;;;;;;4143225;28;20069;-64
2023/12/09 10:24:20;;;;;;;7.88;2.20;;;11.10;99.90;;;;;;4146315;28;20049;-64
2023/12/09 10:26:22;;;;;;;9.10;1.35;;;11.10;99.90;;;;;;4148868;28;20054;-63
2023/12/09 10:28:24;;;;;;;3.25;1.27;;;11.20;99.90;;;;;;4145067;28;20069;-64
2023/12/09 10:30:27;;;;;;;3.78;1.30;;;11.20;99.90;;;;;;4133020;28;20504;-63
2023/12/09 10:32:29;;;;;;;3.03;1.45;;;11.20;99.90;;;;;;4138191;28;20141;-64
2023/12/09 10:34:34;;;;;;;4.07;1.20;;;11.30;99.90;;;;;;4139653;28;20489;-64
2023/12/09 10:36:36;;;;;;;6.20;1.50;;;11.40;99.90;;;;;;4141818;28;20092;-64
2023/12/09 10:38:42;;;;;;;4.05;1.27;;;11.50;99.90;;;;;;4141645;28;20050;-64
2023/12/09 10:40:44;;;;;;;2.17;1.10;;;11.30;99.90;;;;;;4147667;28;20050;-64